createdAt,value
2023-03-21T00:02:01.804Z,4.17
2023-03-21T00:04:44.522Z,4.30
2023-03-21T00:07:19.046Z,4.83
2023-03-21T00:09:48.680Z,4.90
2023-03-21T00:12:17.307Z,5.00
2023-03-21T00:14:48.825Z,4.87
2023-03-21T00:17:18.937Z,4.13
2023-03-21T00:19:51.159Z,4.57
2023-03-21T00:22:20.458Z,4.30
2023-03-21T00:24:48.730Z,4.20
2023-03-21T00:27:42.900Z,4.00
2023-03-21T00:30:11.829Z,4.63
2023-03-21T00:32:54.988Z,5.20
2023-03-21T00:38:18.542Z,5.30
2023-03-21T00:40:49.151Z,5.00
2023-03-21T00:43:19.730Z,5.13
2023-03-21T00:45:51.720Z,5.20
2023-03-21T00:48:21.745Z,5.53
2023-03-21T00:50:50.033Z,5.43
2023-03-21T00:53:18.320Z,5.47
2023-03-21T00:55:48.897Z,5.60
2023-03-21T00:58:18.357Z,4.90
2023-03-21T01:00:48.343Z,4.83
2023-03-21T01:03:24.798Z,4.20
2023-03-21T01:06:07.853Z,4.17
2023-03-21T01:08:51.116Z,3.63
2023-03-21T01:11:25.960Z,3.30
2023-03-21T01:14:04.208Z,3.20
2023-03-21T01:16:40.579Z,3.70
2023-03-21T01:19:22.102Z,4.70
2023-03-21T01:21:54.233Z,5.00
2023-03-21T01:24:22.509Z,5.00
2023-03-21T01:26:54.041Z,5.03
2023-03-21T01:29:22.506Z,4.83
2023-03-21T01:31:54.131Z,4.80
2023-03-21T01:34:22.679Z,5.00
2023-03-21T01:36:51.270Z,4.70
2023-03-21T01:39:20.868Z,5.50
2023-03-21T01:41:49.480Z,5.93
2023-03-21T01:44:19.435Z,5.53
2023-03-21T01:47:09.292Z,5.77
2023-03-21T01:49:46.518Z,6.03
2023-03-21T01:52:33.559Z,5.87
2023-03-21T01:55:12.122Z,5.27
2023-03-21T01:58:03.987Z,5.53
2023-03-21T02:00:36.772Z,5.23
2023-03-21T02:03:18.931Z,5.73
2023-03-21T02:05:56.091Z,6.73
2023-03-21T02:08:36.814Z,6.20
2023-03-21T02:11:10.273Z,5.33
2023-03-21T02:13:38.777Z,5.87
2023-03-21T02:16:15.549Z,5.57
2023-03-21T02:18:52.015Z,5.03
2023-03-21T02:21:45.517Z,4.47
2023-03-21T02:24:59.548Z,4.70
2023-03-21T02:27:36.294Z,4.60
2023-03-21T02:30:35.525Z,4.47
2023-03-21T02:33:39.344Z,4.20
2023-03-21T02:36:19.408Z,4.50
2023-03-21T02:38:56.836Z,4.27
2023-03-21T02:41:40.111Z,4.30
2023-03-21T02:44:17.888Z,4.60
2023-03-21T02:47:03.170Z,4.43
2023-03-21T02:49:43.414Z,4.63
2023-03-21T02:52:28.262Z,4.30
2023-03-21T02:55:04.001Z,4.73
2023-03-21T02:57:42.097Z,4.20
2023-03-21T03:00:17.511Z,4.60
2023-03-21T03:02:50.597Z,4.23
2023-03-21T03:05:23.317Z,3.73
2023-03-21T03:08:03.310Z,3.60
2023-03-21T03:10:45.362Z,4.50
2023-03-21T03:13:23.207Z,4.63
2023-03-21T03:16:05.542Z,5.03
2023-03-21T03:18:43.493Z,4.80
2023-03-21T03:21:20.585Z,5.40
2023-03-21T03:23:51.853Z,4.93
2023-03-21T03:26:27.264Z,4.97
2023-03-21T03:28:59.951Z,5.83
2023-03-21T03:31:35.600Z,4.57
2023-03-21T03:34:08.591Z,4.40
2023-03-21T03:36:41.455Z,5.30
2023-03-21T03:39:13.016Z,4.93
2023-03-21T03:42:07.883Z,3.80
2023-03-21T03:44:38.055Z,3.20
2023-03-21T03:47:15.216Z,4.53
2023-03-21T03:49:54.525Z,4.80
2023-03-21T03:52:28.403Z,4.60
2023-03-21T03:54:57.882Z,4.47
2023-03-21T03:57:29.230Z,4.90
2023-03-21T04:00:00.590Z,3.20
2023-03-21T04:02:30.305Z,4.30
2023-03-21T04:04:58.939Z,4.80
2023-03-21T04:07:28.218Z,5.27
2023-03-21T04:09:58.607Z,5.43
2023-03-21T04:12:28.634Z,6.03
2023-03-21T04:15:08.136Z,6.30
2023-03-21T04:17:40.264Z,4.70
2023-03-21T04:20:15.085Z,4.60
2023-03-21T04:22:45.108Z,4.50
2023-03-21T04:25:18.984Z,4.40
2023-03-21T04:27:55.646Z,4.40
2023-03-21T04:30:25.683Z,4.57
2023-03-21T04:32:57.239Z,5.60
2023-03-21T04:35:25.782Z,5.17
2023-03-21T04:37:54.396Z,4.87
2023-03-21T04:40:23.297Z,5.23
2023-03-21T04:42:51.874Z,5.83
2023-03-21T04:45:21.763Z,5.83
2023-03-21T04:47:50.084Z,6.07
2023-03-21T04:50:18.686Z,6.10
2023-03-21T04:52:47.168Z,5.73
2023-03-21T04:55:16.272Z,6.27
2023-03-21T04:57:44.538Z,6.53
2023-03-21T05:00:15.234Z,5.60
2023-03-21T05:02:46.433Z,6.13
2023-03-21T05:05:14.922Z,6.70
2023-03-21T05:07:43.327Z,5.70
2023-03-21T05:10:13.678Z,6.00
2023-03-21T05:12:42.590Z,5.80
2023-03-21T05:15:11.376Z,6.57
2023-03-21T05:17:39.748Z,6.53
2023-03-21T05:20:11.802Z,5.93
2023-03-21T05:22:41.848Z,5.80
2023-03-21T05:25:11.910Z,6.03
2023-03-21T05:27:45.372Z,6.20
2023-03-21T05:30:16.397Z,5.93
2023-03-21T05:32:44.770Z,4.37
2023-03-21T05:35:15.376Z,5.23
2023-03-21T05:37:43.832Z,4.37
2023-03-21T05:40:13.513Z,5.00
2023-03-21T05:42:42.197Z,5.40
2023-03-21T05:45:11.244Z,5.60
2023-03-21T05:47:39.739Z,5.53
2023-03-21T05:50:09.170Z,5.50
2023-03-21T05:52:39.224Z,5.60
2023-03-21T05:55:08.480Z,5.20
2023-03-21T05:57:39.676Z,4.70
2023-03-21T06:00:09.917Z,5.87
2023-03-21T06:02:38.711Z,5.60
2023-03-21T06:05:07.826Z,5.40
2023-03-21T06:07:37.200Z,5.17
2023-03-21T06:10:11.147Z,6.17
2023-03-21T06:12:39.565Z,5.63
2023-03-21T06:15:09.908Z,5.80
2023-03-21T06:17:38.603Z,5.30
2023-03-21T06:20:08.840Z,5.57
2023-03-21T06:22:37.946Z,5.60
2023-03-21T06:25:10.117Z,5.93
2023-03-21T06:27:39.809Z,6.20
2023-03-21T06:30:09.633Z,6.27
2023-03-21T06:32:38.312Z,7.00
2023-03-21T06:35:07.488Z,6.43
2023-03-21T06:37:36.374Z,6.20
2023-03-21T06:40:05.933Z,6.37
2023-03-21T06:42:35.777Z,7.07
2023-03-21T06:45:04.492Z,6.57
2023-03-21T06:47:35.689Z,6.90
2023-03-21T06:50:03.941Z,6.97
2023-03-21T06:52:32.118Z,4.30
2023-03-21T06:55:01.214Z,3.90
2023-03-21T06:57:29.819Z,4.10
2023-03-21T07:00:00.069Z,4.17
2023-03-21T07:02:29.060Z,5.17
2023-03-21T07:04:57.837Z,4.57
2023-03-21T07:07:29.448Z,4.03
2023-03-21T07:09:58.229Z,4.20
2023-03-21T07:12:26.644Z,4.40
2023-03-21T07:14:55.603Z,4.10
2023-03-21T07:17:25.523Z,3.83
2023-03-21T07:19:53.643Z,4.00
2023-03-21T07:22:22.271Z,3.33
2023-03-21T07:25:02.374Z,3.40
2023-03-21T07:27:35.263Z,4.10
2023-03-21T07:30:04.155Z,4.67
2023-03-21T07:32:38.239Z,5.37
2023-03-21T07:35:08.033Z,6.37
2023-03-21T07:37:37.903Z,7.30
2023-03-21T07:40:11.005Z,7.10
2023-03-21T07:42:39.740Z,8.17
2023-03-21T07:45:10.623Z,8.30
2023-03-21T07:47:40.309Z,8.40
2023-03-21T07:50:09.041Z,10.90
2023-03-21T07:52:37.392Z,12.37
2023-03-21T07:55:06.244Z,13.17
2023-03-21T07:57:36.657Z,12.73
2023-03-21T08:00:09.278Z,13.50
2023-03-21T08:02:37.568Z,12.97
2023-03-21T08:05:09.875Z,12.30
2023-03-21T08:07:38.110Z,10.67
2023-03-21T08:10:07.248Z,10.80
2023-03-21T08:12:35.826Z,11.17
2023-03-21T08:15:04.508Z,9.20
2023-03-21T08:17:33.519Z,5.03
2023-03-21T08:20:01.642Z,5.87
2023-03-21T08:22:31.393Z,4.60
2023-03-21T08:24:59.527Z,5.30
2023-03-21T08:27:27.862Z,4.70
2023-03-21T08:29:56.896Z,4.03
2023-03-21T08:32:29.477Z,3.40
2023-03-21T08:35:00.812Z,5.27
2023-03-21T08:37:31.241Z,3.80
2023-03-21T08:39:59.615Z,2.70
2023-03-21T08:42:28.198Z,2.80
2023-03-21T08:44:56.732Z,3.13
2023-03-21T08:47:25.363Z,2.53
2023-03-21T08:49:53.796Z,2.60
2023-03-21T08:52:21.951Z,2.20
2023-03-21T08:54:51.547Z,2.00
2023-03-21T08:57:19.974Z,2.30
2023-03-21T08:59:48.606Z,2.33
2023-03-21T09:02:17.628Z,2.00
2023-03-21T09:04:46.306Z,1.87
2023-03-21T09:07:18.207Z,2.30
2023-03-21T09:09:53.381Z,1.63
2023-03-21T09:12:28.289Z,2.37
2023-03-21T09:14:56.960Z,1.77
2023-03-21T09:17:25.325Z,2.07
2023-03-21T09:19:53.638Z,1.70
2023-03-21T09:22:23.719Z,1.60
2023-03-21T09:24:52.443Z,1.73
2023-03-21T09:27:23.338Z,1.90
2023-03-21T09:29:54.419Z,2.50
2023-03-21T09:32:22.668Z,2.87
2023-03-21T09:34:51.542Z,2.60
2023-03-21T09:37:21.525Z,3.50
2023-03-21T09:39:51.359Z,2.50
2023-03-21T09:42:33.254Z,2.67
2023-03-21T09:45:12.383Z,2.47
2023-03-21T09:47:49.860Z,2.50
2023-03-21T09:50:22.094Z,2.50
2023-03-21T09:52:57.072Z,2.40
2023-03-21T09:55:31.151Z,4.13
2023-03-21T09:58:06.919Z,3.07
2023-03-21T10:00:39.856Z,3.50
2023-03-21T10:03:24.656Z,3.80
2023-03-21T10:05:57.542Z,3.00
2023-03-21T10:08:31.125Z,4.00
2023-03-21T10:11:03.891Z,3.63
2023-03-21T10:13:35.740Z,4.67
2023-03-21T10:16:15.460Z,3.07
2023-03-21T10:18:47.035Z,3.30
2023-03-21T10:21:47.808Z,2.90
2023-03-21T10:24:14.091Z,3.30
2023-03-21T10:26:44.495Z,3.20
2023-03-21T10:29:17.015Z,2.90
2023-03-21T10:31:48.041Z,3.00
2023-03-21T10:34:20.886Z,3.33
2023-03-21T10:36:49.434Z,2.87
2023-03-21T10:39:26.383Z,3.33
2023-03-21T10:41:55.346Z,3.17
2023-03-21T10:44:30.103Z,2.50
2023-03-21T10:47:04.876Z,2.57
2023-03-21T10:49:40.667Z,2.67
2023-03-21T10:52:22.898Z,2.90
2023-03-21T10:55:05.470Z,3.30
2023-03-21T10:57:34.070Z,4.40
2023-03-21T11:00:14.229Z,3.20
2023-03-21T11:02:44.876Z,4.17
2023-03-21T11:05:22.613Z,3.10
2023-03-21T11:07:58.927Z,2.80
2023-03-21T11:10:33.799Z,2.70
2023-03-21T11:13:07.206Z,2.60
2023-03-21T11:15:43.856Z,2.53
2023-03-21T11:18:20.863Z,2.67
2023-03-21T11:20:54.375Z,2.90
2023-03-21T11:23:27.092Z,2.50
2023-03-21T11:25:56.046Z,2.50
2023-03-21T11:28:33.666Z,2.37
2023-03-21T11:31:03.554Z,2.70
2023-03-21T11:33:37.659Z,2.40
2023-03-21T11:36:09.572Z,3.70
2023-03-21T11:38:40.248Z,2.67
2023-03-21T11:41:09.402Z,2.40
2023-03-21T11:43:39.418Z,2.80
2023-03-21T11:46:10.460Z,2.47
2023-03-21T11:48:43.028Z,2.50
2023-03-21T11:51:21.834Z,2.23
2023-03-21T11:53:57.388Z,2.17
2023-03-21T11:56:33.550Z,2.37
2023-03-21T11:59:29.435Z,2.80
2023-03-21T12:02:20.377Z,2.50
2023-03-21T12:04:55.772Z,2.53
2023-03-21T12:07:49.792Z,2.50
2023-03-21T12:10:33.126Z,2.80
2023-03-21T12:13:31.778Z,4.03
2023-03-21T12:16:22.515Z,2.63
2023-03-21T12:19:14.826Z,2.60
2023-03-21T12:21:55.026Z,2.37
2023-03-21T12:24:33.330Z,2.70
2023-03-21T12:27:13.369Z,2.10
2023-03-21T12:29:58.563Z,2.40
2023-03-21T12:32:43.027Z,2.83
2023-03-21T12:35:23.444Z,2.60
2023-03-21T12:38:02.668Z,2.33
2023-03-21T12:40:43.374Z,2.40
2023-03-21T12:43:41.638Z,2.40
2023-03-21T12:46:17.225Z,3.10
2023-03-21T12:48:49.664Z,2.50
2023-03-21T12:51:21.955Z,2.60
2023-03-21T12:53:59.239Z,2.93
2023-03-21T12:56:32.463Z,2.10
2023-03-21T12:59:06.279Z,2.10
2023-03-21T13:01:38.274Z,4.77
2023-03-21T13:04:32.963Z,2.20
2023-03-21T13:07:05.409Z,2.40
2023-03-21T13:09:39.696Z,1.70
2023-03-21T13:12:22.439Z,2.03
2023-03-21T13:15:07.886Z,1.50
2023-03-21T13:17:43.842Z,1.60
2023-03-21T13:20:21.552Z,1.47
2023-03-21T13:22:50.252Z,1.37
2023-03-21T13:25:22.036Z,1.30
2023-03-21T13:27:54.652Z,1.60
2023-03-21T13:30:26.684Z,1.87
2023-03-21T13:33:05.860Z,1.63
2023-03-21T13:35:41.296Z,1.70
2023-03-21T13:38:16.612Z,1.20
2023-03-21T13:40:50.784Z,2.80
2023-03-21T13:43:45.259Z,1.83
2023-03-21T13:46:15.563Z,2.20
2023-03-21T13:48:59.971Z,1.50
2023-03-21T13:51:47.528Z,1.90
2023-03-21T13:54:24.697Z,1.30
2023-03-21T13:57:01.247Z,1.77
2023-03-21T13:59:42.164Z,1.90
2023-03-21T14:02:33.122Z,1.87
2023-03-21T14:05:05.670Z,2.40
2023-03-21T14:07:38.146Z,2.30
2023-03-21T14:10:19.038Z,2.13
2023-03-21T14:12:49.851Z,2.13
2023-03-21T14:15:21.749Z,2.50
2023-03-21T14:17:58.704Z,2.57
2023-03-21T14:20:29.250Z,2.63
2023-03-21T14:23:01.037Z,2.20
2023-03-21T14:25:46.679Z,2.40
2023-03-21T14:28:20.085Z,2.73
2023-03-21T14:30:53.863Z,2.57
2023-03-21T14:33:28.227Z,2.40
2023-03-21T14:36:00.279Z,3.27
2023-03-21T14:38:34.342Z,3.40
2023-03-21T14:41:02.964Z,3.60
2023-03-21T14:43:34.464Z,3.63
2023-03-21T14:46:03.064Z,4.20
2023-03-21T14:48:35.520Z,4.13
2023-03-21T14:51:06.482Z,4.00
2023-03-21T14:53:39.534Z,4.03
2023-03-21T14:56:11.519Z,4.63
2023-03-21T14:58:44.194Z,4.60
2023-03-21T15:01:17.755Z,4.77
2023-03-21T15:03:47.964Z,5.50
2023-03-21T15:06:16.489Z,4.90
2023-03-21T15:08:57.216Z,4.50
2023-03-21T15:11:32.185Z,4.30
2023-03-21T15:14:04.486Z,4.67
2023-03-21T15:16:33.278Z,4.77
2023-03-21T15:19:05.446Z,5.20
2023-03-21T15:21:38.862Z,5.03
2023-03-21T15:24:14.226Z,5.43
2023-03-21T15:26:46.562Z,5.70
2023-03-21T15:29:18.164Z,6.30
2023-03-21T15:31:49.332Z,6.30
2023-03-21T15:34:23.213Z,6.90
2023-03-21T15:36:58.191Z,6.50
2023-03-21T15:39:29.888Z,7.37
2023-03-21T15:42:01.694Z,6.77
2023-03-21T15:44:32.725Z,7.47
2023-03-21T15:47:04.593Z,7.13
2023-03-21T15:49:41.680Z,7.00
2023-03-21T15:52:15.479Z,7.53
2023-03-21T15:54:48.060Z,7.73
2023-03-21T15:57:23.624Z,7.77
2023-03-21T15:59:57.783Z,8.33
2023-03-21T16:02:31.207Z,7.90
2023-03-21T16:05:02.490Z,7.73
2023-03-21T16:07:35.558Z,7.43
2023-03-21T16:10:05.959Z,8.53
2023-03-21T16:12:35.434Z,7.47
2023-03-21T16:15:11.257Z,8.00
2023-03-21T16:17:44.420Z,8.70
2023-03-21T16:20:20.432Z,8.00
2023-03-21T16:22:48.900Z,7.87
2023-03-21T16:25:18.076Z,7.80
2023-03-21T16:27:47.837Z,7.87
2023-03-21T16:30:23.411Z,8.13
2023-03-21T16:32:51.792Z,8.30
2023-03-21T16:35:23.463Z,8.50
2023-03-21T16:37:52.086Z,8.00
2023-03-21T16:40:28.963Z,8.83
2023-03-21T16:42:57.268Z,8.77
2023-03-21T16:45:31.036Z,9.47
2023-03-21T16:48:02.538Z,8.70
2023-03-21T16:50:35.747Z,6.70
2023-03-21T16:53:05.990Z,6.67
2023-03-21T16:55:37.184Z,6.23
2023-03-21T16:58:05.992Z,5.23
2023-03-21T17:00:36.692Z,5.77
2023-03-21T17:03:19.210Z,5.33
2023-03-21T17:05:48.158Z,5.13
2023-03-21T17:08:18.849Z,4.67
2023-03-21T17:10:48.204Z,4.20
2023-03-21T17:13:17.007Z,4.57
2023-03-21T17:15:47.023Z,4.60
2023-03-21T17:18:15.161Z,4.60
2023-03-21T17:20:43.927Z,4.43
2023-03-21T17:23:12.161Z,4.10
2023-03-21T17:25:40.594Z,3.70
2023-03-21T17:28:09.497Z,3.70
2023-03-21T17:30:40.477Z,4.80
2023-03-21T17:33:10.505Z,4.77
2023-03-21T17:35:39.725Z,3.17
2023-03-21T17:38:13.380Z,3.80
2023-03-21T17:40:41.900Z,4.40
2023-03-21T17:43:15.074Z,4.27
2023-03-21T17:45:43.870Z,4.17
2023-03-21T17:48:13.604Z,3.63
2023-03-21T17:50:42.840Z,4.57
2023-03-21T17:53:11.121Z,4.73
2023-03-21T17:55:40.891Z,4.27
2023-03-21T17:58:11.277Z,4.30
2023-03-21T18:00:40.991Z,4.27
2023-03-21T18:03:09.739Z,4.30
2023-03-21T18:05:39.881Z,3.87
2023-03-21T18:08:11.368Z,4.07
2023-03-21T18:10:43.326Z,4.27
2023-03-21T18:13:12.443Z,4.00
2023-03-21T18:15:44.946Z,4.90
2023-03-21T18:18:14.466Z,4.10
2023-03-21T18:20:52.065Z,3.70
2023-03-21T18:23:22.859Z,3.20
2023-03-21T18:25:57.426Z,3.87
2023-03-21T18:28:26.551Z,4.03
2023-03-21T18:31:16.663Z,4.43
2023-03-21T18:33:45.418Z,4.63
2023-03-21T18:36:20.897Z,4.20
2023-03-21T18:38:57.409Z,2.80
2023-03-21T18:41:26.502Z,2.60
2023-03-21T18:44:02.319Z,2.57
2023-03-21T18:46:38.179Z,2.70
2023-03-21T18:52:10.115Z,2.33
2023-03-21T18:54:39.255Z,2.00
2023-03-21T19:00:11.983Z,1.30
2023-03-21T19:02:50.679Z,1.10
2023-03-21T19:05:22.886Z,1.40
2023-03-21T19:07:56.702Z,1.03
2023-03-21T19:10:28.727Z,1.10
2023-03-21T19:12:59.614Z,1.27
2023-03-21T19:15:28.551Z,0.80
2023-03-21T19:20:46.724Z,0.70
2023-03-21T19:23:17.738Z,0.90
2023-03-21T19:25:47.221Z,0.83
2023-03-21T19:28:15.886Z,1.00
2023-03-21T19:30:49.880Z,1.13
2023-03-21T19:33:21.945Z,1.13
2023-03-21T19:36:10.777Z,1.10
2023-03-21T19:38:43.384Z,1.20
2023-03-21T19:41:12.112Z,1.37
2023-03-21T19:43:43.457Z,1.10
2023-03-21T19:46:22.768Z,1.37
2023-03-21T19:48:51.348Z,1.67
2023-03-21T19:51:28.074Z,1.70
2023-03-21T19:54:06.292Z,1.70
2023-03-21T19:56:35.610Z,2.10
2023-03-21T19:59:04.462Z,2.07
2023-03-21T20:01:37.824Z,2.23
2023-03-21T20:04:06.729Z,2.47
2023-03-21T20:06:35.200Z,2.47
2023-03-21T20:09:47.304Z,2.53
2023-03-21T20:11:55.556Z,2.90
2023-03-21T20:14:26.204Z,3.23
2023-03-21T20:16:57.660Z,3.17
2023-03-21T20:19:28.232Z,3.67
2023-03-21T20:22:01.930Z,3.10
2023-03-21T20:24:36.560Z,3.40
2023-03-21T20:27:09.866Z,3.40
2023-03-21T20:32:31.809Z,3.77
2023-03-21T20:35:13.585Z,3.87
2023-03-21T20:37:49.922Z,4.10
2023-03-21T20:40:25.677Z,3.93
2023-03-21T20:42:58.651Z,3.80
2023-03-21T20:45:29.220Z,3.87
2023-03-21T20:47:58.249Z,4.13
2023-03-21T20:50:28.434Z,4.40
2023-03-21T20:53:06.783Z,5.00
2023-03-21T20:55:38.000Z,4.97
2023-03-21T20:58:29.927Z,4.90
2023-03-21T21:01:03.942Z,5.60
2023-03-21T21:03:38.377Z,6.03
2023-03-21T21:06:13.033Z,6.10
2023-03-21T21:08:51.110Z,6.10
2023-03-21T21:12:05.109Z,6.13
2023-03-21T21:14:10.047Z,6.03
2023-03-21T21:16:38.671Z,6.27
2023-03-21T21:19:10.470Z,7.20
2023-03-21T21:21:38.806Z,6.83
2023-03-21T21:24:08.801Z,7.67
2023-03-21T21:26:47.096Z,7.33
2023-03-21T21:29:17.242Z,9.23
2023-03-21T21:31:47.599Z,7.90
2023-03-21T21:34:16.424Z,7.43
2023-03-21T21:36:48.570Z,8.60
2023-03-21T21:39:17.050Z,8.57
2023-03-21T21:41:49.453Z,8.37
2023-03-21T21:44:19.404Z,8.20
2023-03-21T21:46:47.801Z,7.97
2023-03-21T21:49:16.375Z,8.10
2023-03-21T21:51:48.141Z,8.53
2023-03-21T21:54:18.551Z,8.30
2023-03-21T21:56:48.876Z,8.73
2023-03-21T21:59:22.688Z,9.90
2023-03-21T22:01:51.547Z,10.00
2023-03-21T22:04:24.954Z,10.43
2023-03-21T22:06:53.431Z,9.93
2023-03-21T22:09:26.021Z,12.17
2023-03-21T22:11:58.278Z,11.83
2023-03-21T22:14:29.630Z,12.10
2023-03-21T22:17:03.758Z,11.77
2023-03-21T22:19:35.768Z,12.57
2023-03-21T22:22:05.016Z,10.97
2023-03-21T22:24:33.554Z,11.63
2023-03-21T22:27:03.463Z,11.17
2023-03-21T22:29:31.863Z,10.93
2023-03-21T22:32:00.723Z,11.80
2023-03-21T22:34:29.345Z,11.83
2023-03-21T22:37:02.612Z,11.63
2023-03-21T22:39:31.432Z,11.80
2023-03-21T22:42:00.953Z,12.27
2023-03-21T22:44:35.809Z,12.23
2023-03-21T22:47:04.865Z,11.37
2023-03-21T22:49:33.784Z,12.17
2023-03-21T22:52:05.928Z,12.07
2023-03-21T22:54:34.683Z,12.57
2023-03-21T22:57:03.202Z,12.63
2023-03-21T22:59:34.984Z,13.00
2023-03-21T23:02:05.712Z,13.33
2023-03-21T23:04:34.417Z,13.33
2023-03-21T23:07:08.676Z,13.20
2023-03-21T23:09:37.445Z,13.90
2023-03-21T23:12:06.330Z,13.90
2023-03-21T23:14:37.307Z,14.93
2023-03-21T23:17:05.707Z,14.97
2023-03-21T23:19:36.142Z,16.27
2023-03-21T23:22:04.478Z,15.40
2023-03-21T23:24:32.922Z,16.00
2023-03-21T23:27:02.944Z,15.93
2023-03-21T23:29:31.571Z,14.63
2023-03-21T23:32:01.708Z,15.33
2023-03-21T23:34:29.922Z,16.17
2023-03-21T23:37:01.948Z,15.97
2023-03-21T23:39:30.367Z,15.63
2023-03-21T23:41:59.760Z,15.63
2023-03-21T23:44:28.294Z,15.80
2023-03-21T23:46:57.268Z,15.77
2023-03-21T23:49:26.846Z,15.00
2023-03-21T23:51:55.320Z,15.67
2023-03-21T23:54:23.592Z,16.27
2023-03-21T23:56:52.343Z,17.23
2023-03-21T23:59:23.611Z,17.77
